• Join FlightAware (Why Join?)
  • Login
  • US Flag 
12:43PM EST


 

Airport Tracker/Info


-or-


 

Live Flight TrackerFlight Track Log ✈ N77PV ✈ 10-Mar-2014 ✈ KHOU - KVCT

Flight Track Log - Related Links

Times and Time Zones

All times are in EDT time to prevent confusion due to time zone crossing. See the N77PV flight status page for this flight to view local times or setup timezone preferences in your user account.

Time Position Orientation Groundspeed Altitude Reporting Facility
EDT Latitude Longitude Course Direction KTS MPH feet Rate Location/Type
02:50PM 29.6306 -95.2825 168° South 137 158 500  Level Houston Center
02:52PM 29.5769 -95.2697 168° South 171 197 2,800 1,800 Climbing Houston Center
02:52PM 29.5725 -95.2664 147° Southeast 160 184 3,000 1,320 Climbing Houston Center
02:53PM 29.5281 -95.2636 177° South 185 213 4,200 1,200 Climbing Houston Center
02:53PM 29.5242 -95.2642 187° South 177 204 4,300 1,140 Climbing Houston Center
02:54PM 29.4769 -95.2794 196° South 201 231 5,400 1,020 Climbing Houston Center
02:54PM 29.4722 -95.2806 192° South 193 222 5,400 1,080 Level Houston Center
02:55PM 29.4197 -95.2958 194° South 196 226 6,500 1,020 Climbing Houston Center
02:55PM 29.4194 -95.2958 180° South 195 224 6,500 660 Level Houston Center
02:56PM 29.3650 -95.3094 192° South 197 227 7,300 900 Climbing Houston Center
02:57PM 29.2978 -95.3264 192° South 204 235 8,400 960 Climbing Houston Center
02:58PM 29.2589 -95.3647 221° Southwest 199 229 9,300 720 Climbing Houston Center
02:59PM 29.2347 -95.4233 245° Southwest 201 231 10,000 720 Climbing Houston Center
03:00PM 29.2064 -95.4786 240° Southwest 203 234 10,800 720 Climbing Houston Center
03:01PM 29.1794 -95.5350 241° Southwest 201 231 11,500 600 Climbing Houston Center
03:02PM 29.1678 -95.5986 258° West 207 238 12,100 600 Climbing Houston Center
03:03PM 29.1694 -95.6797 271° West 210 242 12,800 480 Climbing Houston Center
03:04PM 29.1572 -95.7439 258° West 211 243 13,200 360 Climbing Houston Center
03:05PM 29.1375 -95.8081 251° West 211 243 13,600 360 Climbing Houston Center
03:06PM 29.1217 -95.8731 254° West 211 243 14,000 180 Climbing Houston Center
03:07PM 29.1039 -95.9406 253° West 216 249 14,000  Level Houston Center
03:08PM 29.0847 -96.0167 254° West 223 257 14,000  Level Houston Center
03:09PM 29.0661 -96.0875 253° West 231 266 14,000  Level Houston Center
03:10PM 29.0347 -96.1533 241° Southwest 232 267 14,000  Level Houston Center
03:11PM 28.9992 -96.2328 243° Southwest 232 267 14,000 -240 Level Houston Center
03:12PM 28.9681 -96.3003 242° Southwest 236 272 13,600 -540 Descending Houston Center
03:13PM 28.9406 -96.3631 243° Southwest 225 259 13,000 -840 Descending Houston Center
03:14PM 28.9150 -96.4189 242° Southwest 205 236 11,900 -1,140 Descending Houston Center
03:15PM 28.8914 -96.4772 245° Southwest 203 234 10,700 -1,020 Descending Houston Center
03:17PM 28.8978 -96.5392 277° West 199 229 9,900 -960 Descending Houston Center
03:18PM 28.8894 -96.6047 262° West 176 203 8,800 -1,260 Descending Houston Center
03:19PM 28.8811 -96.6597 260° West 175 201 7,400 -1,260 Descending Houston Center
03:20PM 28.8764 -96.7183 265° West 180 207 6,200 -1,380 Descending Houston Center
03:21PM 28.8714 -96.7756 264° West 181 208 4,600 -1,560 Descending Houston Center